createdAt,value
2018-04-19T00:01:54.616Z,11.40
2018-04-19T00:04:22.872Z,11.40
2018-04-19T00:06:50.399Z,11.40
2018-04-19T00:09:17.929Z,11.50
2018-04-19T00:11:46.237Z,11.50
2018-04-19T00:14:13.720Z,11.50
2018-04-19T00:16:41.229Z,11.50
2018-04-19T00:19:09.537Z,11.20
2018-04-19T00:21:37.044Z,11.20
2018-04-19T00:24:04.537Z,11.10
2018-04-19T00:26:32.819Z,11.10
2018-04-19T00:29:01.108Z,11.20
2018-04-19T00:31:29.378Z,11.00
2018-04-19T00:33:56.875Z,11.00
2018-04-19T00:36:24.368Z,10.90
2018-04-19T00:38:51.861Z,10.80
2018-04-19T00:41:19.365Z,10.80
2018-04-19T00:43:46.857Z,10.90
2018-04-19T00:46:14.347Z,10.90
2018-04-19T00:48:41.864Z,10.90
2018-04-19T00:51:09.371Z,10.70
2018-04-19T00:53:36.862Z,10.70
2018-04-19T00:56:04.376Z,10.70
2018-04-19T00:58:31.868Z,10.70
2018-04-19T01:00:59.553Z,10.70
2018-04-19T01:03:27.801Z,10.80
2018-04-19T01:05:55.294Z,10.80
2018-04-19T01:08:23.554Z,10.80
2018-04-19T01:10:51.066Z,10.80
2018-04-19T01:13:19.357Z,10.60
2018-04-19T01:15:47.012Z,10.60
2018-04-19T01:18:14.498Z,10.70
2018-04-19T01:20:42.012Z,10.60
2018-04-19T01:23:10.260Z,10.60
2018-04-19T01:25:37.793Z,10.60
2018-04-19T01:28:05.272Z,10.60
2018-04-19T01:30:32.781Z,10.50
2018-04-19T01:33:00.280Z,10.40
2018-04-19T01:35:39.735Z,10.40
2018-04-19T01:38:07.219Z,10.50
2018-04-19T01:40:34.722Z,10.40
2018-04-19T01:43:02.213Z,10.40
2018-04-19T01:45:29.717Z,10.50
2018-04-19T01:47:57.974Z,10.40
2018-04-19T01:50:25.469Z,10.40
2018-04-19T01:52:53.715Z,10.30
2018-04-19T01:55:21.210Z,10.30
2018-04-19T01:57:49.469Z,10.30
2018-04-19T02:00:16.967Z,10.30
2018-04-19T02:02:44.471Z,10.20
2018-04-19T02:05:12.720Z,10.10
2018-04-19T02:07:40.203Z,10.10
2018-04-19T02:10:07.708Z,10.10
2018-04-19T02:12:35.199Z,10.00
2018-04-19T02:15:02.705Z,10.00
2018-04-19T02:17:30.217Z,9.90
2018-04-19T02:19:57.701Z,10.10
2018-04-19T02:22:25.201Z,10.00
2018-04-19T02:24:52.692Z,9.90
2018-04-19T02:27:20.978Z,9.90
2018-04-19T02:29:49.234Z,9.80
2018-04-19T02:32:16.735Z,9.80
2018-04-19T02:34:44.220Z,9.80
2018-04-19T02:37:11.716Z,9.80
2018-04-19T02:39:39.215Z,9.80
2018-04-19T02:42:07.474Z,9.90
2018-04-19T02:44:34.965Z,9.90
2018-04-19T02:47:02.452Z,9.80
2018-04-19T02:49:29.945Z,9.70
2018-04-19T02:51:57.473Z,9.70
2018-04-19T02:54:24.961Z,9.70
2018-04-19T02:56:52.458Z,9.60
2018-04-19T02:59:20.723Z,9.50
2018-04-19T03:01:48.234Z,9.50
2018-04-19T03:04:15.737Z,9.60
2018-04-19T03:06:43.253Z,9.70
2018-04-19T03:09:10.737Z,9.60
2018-04-19T03:11:38.235Z,9.60
2018-04-19T03:14:05.720Z,9.70
2018-04-19T03:16:33.999Z,9.70
2018-04-19T03:19:02.246Z,9.70
2018-04-19T03:21:29.736Z,9.70
2018-04-19T03:23:57.227Z,9.60
2018-04-19T03:26:24.708Z,9.50
2018-04-19T03:28:52.230Z,9.50
2018-04-19T03:31:20.492Z,9.40
2018-04-19T03:33:47.978Z,9.40
2018-04-19T03:36:16.249Z,9.30
2018-04-19T03:38:44.518Z,9.30
2018-04-19T03:41:12.019Z,9.30
2018-04-19T03:43:39.503Z,9.30
2018-04-19T03:46:07.011Z,9.30
2018-04-19T03:48:34.543Z,9.20
2018-04-19T03:51:02.027Z,9.20
2018-04-19T03:53:29.503Z,9.20
2018-04-19T03:55:56.989Z,9.20
2018-04-19T03:58:25.255Z,9.10
2018-04-19T04:00:53.521Z,9.00
2018-04-19T04:03:21.041Z,9.00
2018-04-19T04:05:48.515Z,9.10
2018-04-19T04:08:16.009Z,9.20
2018-04-19T04:10:43.499Z,9.20
2018-04-19T04:13:11.757Z,9.10
2018-04-19T04:15:39.249Z,9.10
2018-04-19T04:18:28.666Z,9.10
2018-04-19T04:21:07.988Z,9.10
2018-04-19T04:23:44.241Z,9.10
2018-04-19T04:26:11.787Z,9.10
2018-04-19T04:28:39.264Z,9.10
2018-04-19T04:31:06.824Z,9.00
2018-04-19T04:33:35.034Z,9.10
2018-04-19T04:36:02.511Z,9.00
2018-04-19T04:38:30.781Z,9.10
2018-04-19T04:40:58.295Z,9.00
2018-04-19T04:43:25.776Z,9.10
2018-04-19T04:45:53.276Z,9.20
2018-04-19T04:48:20.758Z,9.10
2018-04-19T04:50:49.061Z,8.90
2018-04-19T04:53:16.565Z,8.90
2018-04-19T04:55:44.053Z,8.90
2018-04-19T04:58:12.313Z,8.90
2018-04-19T05:00:39.827Z,8.90
2018-04-19T05:03:07.327Z,8.80
2018-04-19T05:05:34.847Z,8.80
2018-04-19T05:08:02.346Z,8.90
2018-04-19T05:10:29.848Z,9.00
2018-04-19T05:12:58.123Z,9.00
2018-04-19T05:15:25.638Z,9.00
2018-04-19T05:17:53.138Z,9.10
2018-04-19T05:20:20.623Z,9.10
2018-04-19T05:22:48.119Z,9.10
2018-04-19T05:25:15.593Z,9.10
2018-04-19T05:27:43.261Z,9.10
2018-04-19T05:30:10.754Z,9.20
2018-04-19T05:32:38.246Z,9.20
2018-04-19T05:35:06.500Z,9.20
2018-04-19T05:37:33.985Z,9.10
2018-04-19T05:40:02.253Z,9.40
2018-04-19T05:42:30.527Z,9.40
2018-04-19T05:44:58.008Z,9.40
2018-04-19T05:47:26.261Z,9.20
2018-04-19T05:49:53.739Z,9.20
2018-04-19T05:52:22.008Z,9.30
2018-04-19T05:54:49.533Z,9.30
2018-04-19T05:57:17.031Z,9.30
2018-04-19T05:59:44.511Z,9.40
2018-04-19T06:02:12.779Z,9.80
2018-04-19T06:04:40.269Z,9.80
2018-04-19T06:07:07.756Z,10.20
2018-04-19T06:09:35.249Z,10.60
2018-04-19T06:12:02.754Z,10.90
2018-04-19T06:14:31.011Z,11.40
2018-04-19T06:16:58.539Z,11.40
2018-04-19T06:19:26.035Z,11.70
2018-04-19T06:21:53.549Z,12.00
2018-04-19T06:24:21.082Z,12.20
2018-04-19T06:26:49.353Z,12.60
2018-04-19T06:29:17.648Z,12.90
2018-04-19T06:31:45.925Z,13.00
2018-04-19T06:34:14.183Z,13.20
2018-04-19T06:36:41.685Z,13.20
2018-04-19T06:39:09.184Z,13.30
2018-04-19T06:41:37.525Z,13.60
2018-04-19T06:44:04.987Z,13.60
2018-04-19T06:46:32.491Z,13.70
2018-04-19T06:48:59.995Z,14.00
2018-04-19T06:51:28.273Z,14.20
2018-04-19T06:53:56.555Z,14.30
2018-04-19T06:56:24.811Z,14.50
2018-04-19T06:58:52.312Z,14.50
2018-04-19T07:01:20.582Z,14.70
2018-04-19T07:03:48.845Z,14.90
2018-04-19T07:06:16.348Z,14.90
2018-04-19T07:08:43.838Z,15.00
2018-04-19T07:11:11.346Z,15.10
2018-04-19T07:13:39.615Z,15.10
2018-04-19T07:16:07.102Z,15.10
2018-04-19T07:18:34.632Z,15.30
2018-04-19T07:21:02.162Z,15.40
2018-04-19T07:23:29.685Z,15.20
2018-04-19T07:25:57.950Z,15.20
2018-04-19T07:28:25.456Z,15.20
2018-04-19T07:30:52.971Z,15.40
2018-04-19T07:33:20.477Z,15.60
2018-04-19T07:35:47.984Z,15.70
2018-04-19T07:38:15.497Z,15.70
2018-04-19T07:40:42.988Z,15.80
2018-04-19T07:43:11.266Z,16.00
2018-04-19T07:45:38.750Z,16.00
2018-04-19T07:48:06.242Z,16.20
2018-04-19T07:50:34.519Z,16.50
2018-04-19T07:53:02.797Z,16.40
2018-04-19T07:55:30.286Z,16.40
2018-04-19T07:57:57.836Z,16.50
2018-04-19T08:00:25.316Z,16.70
2018-04-19T08:02:52.825Z,16.70
2018-04-19T08:05:20.339Z,16.70
2018-04-19T08:07:47.835Z,16.90
2018-04-19T08:10:15.336Z,16.90
2018-04-19T08:12:42.851Z,16.90
2018-04-19T08:15:10.345Z,16.80
2018-04-19T08:17:37.833Z,16.90
2018-04-19T08:20:05.346Z,17.10
2018-04-19T08:22:32.851Z,17.20
2018-04-19T08:25:00.366Z,17.30
2018-04-19T08:27:27.885Z,17.40
2018-04-19T08:29:56.161Z,17.60
2018-04-19T08:32:23.672Z,17.50
2018-04-19T08:34:51.168Z,17.60
2018-04-19T08:37:18.712Z,17.70
2018-04-19T08:39:46.206Z,18.00
2018-04-19T08:42:13.727Z,18.20
2018-04-19T08:44:41.230Z,18.30
2018-04-19T08:47:08.733Z,18.20
2018-04-19T08:49:36.241Z,18.40
2018-04-19T08:52:03.792Z,18.60
2018-04-19T08:54:31.301Z,18.90
2018-04-19T08:56:59.570Z,19.10
2018-04-19T08:59:27.076Z,19.10
2018-04-19T09:01:54.578Z,19.10
2018-04-19T09:04:22.059Z,19.20
2018-04-19T09:06:49.578Z,19.30
2018-04-19T09:09:17.072Z,19.50
2018-04-19T09:11:44.577Z,19.70
2018-04-19T09:14:12.092Z,19.80
2018-04-19T09:16:39.607Z,19.70
2018-04-19T09:19:07.106Z,19.80
2018-04-19T09:21:34.612Z,19.60
2018-04-19T09:24:02.912Z,19.90
2018-04-19T09:26:30.437Z,19.90
2018-04-19T09:28:57.957Z,19.90
2018-04-19T09:31:25.455Z,19.80
2018-04-19T09:33:52.971Z,19.70
2018-04-19T09:36:20.484Z,19.80
2018-04-19T09:38:47.998Z,19.90
2018-04-19T09:41:15.505Z,19.90
2018-04-19T09:43:43.004Z,20.00
2018-04-19T09:46:11.273Z,20.10
2018-04-19T09:48:38.787Z,20.10
2018-04-19T09:51:06.291Z,20.10
2018-04-19T09:53:33.817Z,20.10
2018-04-19T09:56:01.317Z,20.10
2018-04-19T09:58:28.819Z,20.40
2018-04-19T10:01:01.906Z,20.70
2018-04-19T10:03:29.456Z,20.60
2018-04-19T10:06:07.447Z,20.70
2018-04-19T10:08:35.728Z,20.90
2018-04-19T10:11:03.990Z,20.80
2018-04-19T10:13:31.489Z,20.80
2018-04-19T10:15:59.019Z,20.90
2018-04-19T10:18:26.498Z,21.20
2018-04-19T10:20:53.998Z,21.20
2018-04-19T10:23:21.498Z,21.40
2018-04-19T10:25:49.090Z,21.30
2018-04-19T10:28:17.347Z,21.40
2018-04-19T10:30:44.857Z,21.40
2018-04-19T10:33:12.359Z,21.30
2018-04-19T10:35:39.852Z,21.20
2018-04-19T10:38:08.139Z,21.40
2018-04-19T10:40:36.423Z,21.50
2018-04-19T10:43:03.956Z,21.40
2018-04-19T10:45:31.465Z,21.30
2018-04-19T10:47:58.963Z,21.30
2018-04-19T10:50:26.469Z,21.40
2018-04-19T10:52:54.739Z,21.50
2018-04-19T10:55:22.248Z,21.50
2018-04-19T10:57:49.743Z,21.70
2018-04-19T11:00:17.245Z,21.80
2018-04-19T11:02:45.524Z,21.90
2018-04-19T11:05:13.793Z,21.90
2018-04-19T11:07:42.072Z,22.00
2018-04-19T11:10:09.578Z,22.00
2018-04-19T11:12:37.084Z,22.20
2018-04-19T11:15:04.609Z,22.30
2018-04-19T11:17:32.096Z,22.30
2018-04-19T11:19:59.603Z,22.70
2018-04-19T11:22:27.925Z,23.20
2018-04-19T11:24:56.152Z,23.40
2018-04-19T11:27:23.834Z,23.30
2018-04-19T11:29:51.376Z,23.60
2018-04-19T11:32:18.872Z,23.80
2018-04-19T11:34:46.411Z,23.90
2018-04-19T11:37:14.665Z,24.10
2018-04-19T11:39:42.148Z,24.10
2018-04-19T11:42:09.678Z,24.30
2018-04-19T11:44:37.177Z,24.60
2018-04-19T11:47:04.716Z,24.50
2018-04-19T11:49:32.206Z,24.40
2018-04-19T11:52:00.477Z,24.50
2018-04-19T11:54:28.000Z,24.40
2018-04-19T11:56:55.511Z,24.40
2018-04-19T11:59:23.021Z,24.40
2018-04-19T12:01:50.569Z,24.40
2018-04-19T12:04:18.098Z,24.50
2018-04-19T12:06:45.616Z,24.60
2018-04-19T12:09:13.138Z,24.70
2018-04-19T12:11:41.411Z,25.00
2018-04-19T12:14:08.906Z,24.90
2018-04-19T12:16:36.378Z,25.10
2018-04-19T12:19:03.886Z,25.20
2018-04-19T12:21:31.389Z,25.30
2018-04-19T12:23:59.079Z,25.20
2018-04-19T12:26:26.620Z,25.20
2018-04-19T12:28:54.384Z,25.40
2018-04-19T12:31:21.894Z,25.50
2018-04-19T12:33:49.386Z,25.40
2018-04-19T12:36:16.896Z,25.60
2018-04-19T12:38:44.389Z,25.60
2018-04-19T12:41:11.881Z,25.60
2018-04-19T12:43:40.153Z,25.40
2018-04-19T12:46:07.643Z,25.40
2018-04-19T12:48:35.932Z,25.40
2018-04-19T12:51:03.436Z,25.40
2018-04-19T12:53:30.950Z,25.50
2018-04-19T12:55:58.474Z,25.70
2018-04-19T12:58:25.996Z,25.80
2018-04-19T13:00:53.524Z,25.90
2018-04-19T13:03:21.789Z,26.00
2018-04-19T13:05:49.295Z,26.00
2018-04-19T13:08:16.791Z,26.20
2018-04-19T13:10:44.283Z,26.50
2018-04-19T13:13:11.964Z,26.40
2018-04-19T13:15:40.230Z,26.60
2018-04-19T13:18:08.524Z,26.80
2018-04-19T13:20:35.999Z,26.70
2018-04-19T13:23:03.513Z,26.90
2018-04-19T13:25:31.047Z,27.00
2018-04-19T13:27:58.559Z,27.00
2018-04-19T13:30:27.753Z,26.90
2018-04-19T13:32:55.258Z,26.90
2018-04-19T13:35:22.745Z,27.00
2018-04-19T13:37:50.238Z,27.00
2018-04-19T13:40:17.761Z,27.00
2018-04-19T13:42:45.258Z,27.00
2018-04-19T13:45:12.794Z,27.00
2018-04-19T13:47:40.276Z,27.20
2018-04-19T13:50:07.824Z,26.90
2018-04-19T13:52:35.318Z,26.70
2018-04-19T13:55:02.809Z,26.60
2018-04-19T13:57:31.072Z,26.50
2018-04-19T13:59:58.581Z,26.50
2018-04-19T14:02:26.104Z,26.60
2018-04-19T14:04:54.387Z,26.70
2018-04-19T14:07:22.672Z,26.80
2018-04-19T14:09:50.971Z,27.00
2018-04-19T14:12:18.457Z,27.00
2018-04-19T14:14:45.975Z,27.30
2018-04-19T14:17:14.236Z,27.90
2018-04-19T14:19:41.757Z,27.80
2018-04-19T14:22:09.250Z,28.30
2018-04-19T14:24:36.733Z,28.40
2018-04-19T14:27:04.249Z,28.60
2018-04-19T14:29:31.756Z,28.90
2018-04-19T14:32:00.030Z,29.30
2018-04-19T14:34:27.523Z,29.20
2018-04-19T14:36:55.779Z,29.60
2018-04-19T14:39:23.309Z,29.60
2018-04-19T14:41:51.576Z,30.10
2018-04-19T14:44:19.052Z,30.00
2018-04-19T14:46:46.556Z,30.30
2018-04-19T14:49:14.092Z,30.80
2018-04-19T14:51:41.653Z,31.40
2018-04-19T14:54:09.865Z,31.60
2018-04-19T14:56:38.182Z,31.50
2018-04-19T14:59:05.685Z,31.50
2018-04-19T15:01:33.187Z,31.70
2018-04-19T15:04:01.475Z,32.10
2018-04-19T15:06:28.983Z,32.10
2018-04-19T15:08:56.514Z,32.50
2018-04-19T15:11:24.042Z,32.60
2018-04-19T15:13:52.321Z,32.30
2018-04-19T15:16:20.603Z,32.30
2018-04-19T15:18:48.873Z,32.00
2018-04-19T15:21:16.353Z,32.00
2018-04-19T15:23:44.654Z,31.70
2018-04-19T15:26:12.169Z,31.70
2018-04-19T15:28:39.688Z,31.20
2018-04-19T15:31:07.188Z,30.30
2018-04-19T15:33:34.829Z,29.50
2018-04-19T15:36:02.342Z,28.80
2018-04-19T15:38:29.861Z,27.80
2018-04-19T15:40:57.368Z,27.20
2018-04-19T15:43:24.899Z,26.80
2018-04-19T15:45:52.386Z,26.40
2018-04-19T15:48:19.890Z,26.20
2018-04-19T15:50:47.410Z,26.00
2018-04-19T15:53:14.901Z,25.90
2018-04-19T15:55:43.173Z,25.50
2018-04-19T15:58:11.443Z,25.30
2018-04-19T16:00:38.945Z,25.30
2018-04-19T16:03:06.428Z,25.00
2018-04-19T16:05:33.931Z,24.80
2018-04-19T16:08:01.427Z,24.60
2018-04-19T16:10:28.954Z,24.50
2018-04-19T16:12:56.464Z,24.30
2018-04-19T16:15:24.722Z,24.30
2018-04-19T16:17:52.233Z,24.30
2018-04-19T16:20:19.759Z,24.20
2018-04-19T16:22:47.256Z,24.00
2018-04-19T16:25:14.747Z,23.60
2018-04-19T16:27:42.305Z,23.40
2018-04-19T16:30:09.841Z,23.20
2018-04-19T16:32:37.347Z,23.10
2018-04-19T16:35:05.662Z,23.00
2018-04-19T16:37:33.223Z,23.00
2018-04-19T16:40:00.718Z,22.90
2018-04-19T16:42:28.224Z,22.80
2018-04-19T16:44:56.499Z,22.60
2018-04-19T16:47:24.043Z,22.50
2018-04-19T16:49:51.523Z,22.40
2018-04-19T16:52:19.837Z,22.10
2018-04-19T16:54:47.334Z,22.10
2018-04-19T16:57:14.819Z,22.00
2018-04-19T16:59:42.346Z,21.90
2018-04-19T17:02:09.852Z,21.90
2018-04-19T17:04:37.403Z,21.90
2018-04-19T17:07:04.952Z,21.70
2018-04-19T17:09:32.471Z,21.70
2018-04-19T17:11:59.995Z,21.60
2018-04-19T17:14:27.498Z,21.60
2018-04-19T17:16:55.028Z,21.60
2018-04-19T17:19:22.534Z,21.60
2018-04-19T17:21:50.042Z,21.50
2018-04-19T17:24:17.559Z,21.40
2018-04-19T17:26:45.057Z,21.40
2018-04-19T17:29:12.579Z,21.30
2018-04-19T17:31:40.065Z,21.20
2018-04-19T17:34:07.572Z,21.20
2018-04-19T17:36:35.065Z,21.10
2018-04-19T17:39:02.588Z,21.00
2018-04-19T17:41:30.088Z,20.70
2018-04-19T17:43:57.579Z,20.60
2018-04-19T17:46:25.089Z,20.40
2018-04-19T17:48:52.586Z,20.20
2018-04-19T17:51:20.091Z,20.00
2018-04-19T17:53:47.676Z,19.90
2018-04-19T17:56:15.152Z,19.90
2018-04-19T17:58:43.426Z,19.90
2018-04-19T18:01:11.718Z,19.70
2018-04-19T18:03:39.969Z,19.70
2018-04-19T18:06:07.478Z,19.70
2018-04-19T18:08:34.962Z,19.70
2018-04-19T18:11:02.488Z,19.60
2018-04-19T18:13:30.741Z,19.40
2018-04-19T18:15:58.261Z,19.30
2018-04-19T18:18:25.765Z,19.30
2018-04-19T18:20:53.266Z,19.20
2018-04-19T18:23:20.815Z,19.10
2018-04-19T18:25:49.079Z,18.90
2018-04-19T18:28:16.571Z,18.90
2018-04-19T18:30:44.082Z,18.80
2018-04-19T18:33:11.581Z,18.60
2018-04-19T18:35:39.848Z,18.40
2018-04-19T18:38:07.335Z,18.30
2018-04-19T18:40:34.859Z,18.30
2018-04-19T18:43:02.373Z,18.20
2018-04-19T18:45:29.887Z,18.10
2018-04-19T18:47:57.398Z,18.00
2018-04-19T18:50:24.909Z,18.00
2018-04-19T18:52:52.468Z,17.90
2018-04-19T18:55:19.964Z,17.90
2018-04-19T18:57:47.451Z,18.00
2018-04-19T19:00:14.972Z,17.90
2018-04-19T19:02:42.472Z,17.90
2018-04-19T19:05:10.005Z,18.00
2018-04-19T19:07:37.493Z,18.00
2018-04-19T19:10:05.000Z,18.10
2018-04-19T19:12:32.503Z,18.10
2018-04-19T19:15:00.807Z,18.20
2018-04-19T19:17:40.240Z,18.20
2018-04-19T19:20:15.465Z,18.20
2018-04-19T19:22:43.740Z,17.80
2018-04-19T19:25:11.991Z,17.70
2018-04-19T19:27:39.477Z,17.70
2018-04-19T19:30:06.994Z,17.70
2018-04-19T19:32:34.491Z,17.50
2018-04-19T19:35:05.481Z,17.50
2018-04-19T19:37:32.990Z,17.40
2018-04-19T19:40:00.507Z,17.40
2018-04-19T19:42:28.048Z,17.40
2018-04-19T19:44:56.311Z,17.30
2018-04-19T19:47:23.889Z,17.30
2018-04-19T19:49:51.423Z,17.20
2018-04-19T19:52:18.957Z,17.10
2018-04-19T19:54:46.460Z,17.00
2018-04-19T19:57:13.986Z,17.00
2018-04-19T19:59:41.503Z,17.10
2018-04-19T20:02:09.777Z,16.80
2018-04-19T20:04:37.353Z,16.80
2018-04-19T20:07:04.856Z,16.70
2018-04-19T20:09:32.348Z,16.70
2018-04-19T20:11:59.841Z,16.60
2018-04-19T20:14:28.104Z,16.30
2018-04-19T20:16:55.622Z,16.30
2018-04-19T20:19:23.132Z,16.30
2018-04-19T20:21:50.670Z,16.10
2018-04-19T20:24:18.157Z,16.00
2018-04-19T20:26:45.745Z,15.80
2018-04-19T20:29:14.005Z,15.70
2018-04-19T20:31:41.509Z,15.70
2018-04-19T20:34:09.022Z,15.80
2018-04-19T20:36:36.561Z,15.70
2018-04-19T20:39:05.337Z,15.50
2018-04-19T20:41:32.850Z,15.50
2018-04-19T20:44:00.342Z,15.40
2018-04-19T20:46:27.845Z,15.40
2018-04-19T20:48:55.342Z,15.40
2018-04-19T20:51:22.950Z,15.40
2018-04-19T20:53:50.455Z,15.30
2018-04-19T20:56:17.945Z,15.20
2018-04-19T20:58:46.219Z,15.20
2018-04-19T21:01:14.486Z,15.10
2018-04-19T21:03:41.982Z,15.10
2018-04-19T21:06:09.505Z,15.00
2018-04-19T21:08:37.000Z,14.90
2018-04-19T21:11:04.514Z,14.80
2018-04-19T21:13:32.009Z,14.70
2018-04-19T21:16:00.306Z,14.60
2018-04-19T21:18:27.794Z,14.50
2018-04-19T21:20:55.282Z,14.60
2018-04-19T21:23:22.770Z,14.50
2018-04-19T21:25:50.268Z,14.50
2018-04-19T21:28:17.787Z,14.50
2018-04-19T21:30:45.285Z,14.50
2018-04-19T21:33:13.543Z,14.50
2018-04-19T21:35:41.057Z,14.40
2018-04-19T21:38:08.567Z,14.40
2018-04-19T21:40:36.075Z,14.30
2018-04-19T21:43:04.752Z,14.30
2018-04-19T21:45:32.242Z,14.20
2018-04-19T21:47:59.750Z,14.20
2018-04-19T21:50:27.239Z,14.10
2018-04-19T21:52:54.732Z,14.10
2018-04-19T21:55:22.232Z,14.10
2018-04-19T21:57:49.721Z,14.10
2018-04-19T22:00:18.028Z,13.90
2018-04-19T22:02:45.513Z,13.90
2018-04-19T22:05:13.027Z,13.90
2018-04-19T22:07:41.285Z,13.80
2018-04-19T22:10:08.785Z,13.80
2018-04-19T22:12:36.281Z,13.80
2018-04-19T22:15:03.779Z,13.70
2018-04-19T22:17:32.055Z,13.60
2018-04-19T22:19:59.552Z,13.60
2018-04-19T22:22:27.036Z,13.60
2018-04-19T22:24:54.534Z,13.60
2018-04-19T22:27:22.021Z,13.50
2018-04-19T22:29:50.512Z,13.70
2018-04-19T22:32:18.771Z,13.70
2018-04-19T22:34:46.252Z,13.70
2018-04-19T22:37:13.740Z,13.60
2018-04-19T22:39:41.263Z,13.50
2018-04-19T22:42:08.754Z,13.40
2018-04-19T22:44:36.924Z,13.50
2018-04-19T22:47:05.184Z,13.30
2018-04-19T22:49:32.678Z,13.20
2018-04-19T22:52:00.187Z,13.20
2018-04-19T22:54:27.681Z,13.20
2018-04-19T22:56:55.194Z,13.30
2018-04-19T22:59:22.714Z,13.40
2018-04-19T23:01:50.966Z,13.20
2018-04-19T23:04:18.448Z,13.20
2018-04-19T23:06:46.701Z,13.20
2018-04-19T23:09:14.228Z,13.20
2018-04-19T23:11:41.724Z,13.20
2018-04-19T23:14:09.969Z,13.10
2018-04-19T23:16:37.465Z,13.10
2018-04-19T23:19:04.936Z,13.00
2018-04-19T23:21:32.447Z,12.90
2018-04-19T23:23:59.936Z,12.70
2018-04-19T23:26:27.413Z,12.70
2018-04-19T23:28:54.902Z,12.70
2018-04-19T23:31:22.400Z,12.60
2018-04-19T23:33:49.891Z,12.50
2018-04-19T23:36:17.409Z,12.50
2018-04-19T23:38:45.673Z,12.50
2018-04-19T23:41:13.167Z,12.40
2018-04-19T23:43:40.667Z,12.40
2018-04-19T23:46:08.710Z,12.60
2018-04-19T23:48:36.193Z,12.70
2018-04-19T23:51:03.688Z,12.70
2018-04-19T23:53:31.173Z,12.70
2018-04-19T23:55:58.657Z,12.80
2018-04-19T23:58:26.410Z,12.70
